MDT,Max TemperatureF,Mean TemperatureF,Min TemperatureF,Max Dew PointF,MeanDew PointF,Min DewpointF,Max Humidity, Mean Humidity, Min Humidity, Max Sea Level PressureIn, Mean Sea Level PressureIn, Min Sea Level PressureIn, Max VisibilityMiles, Mean VisibilityMiles, Min VisibilityMiles, Max Wind SpeedMPH, Mean Wind SpeedMPH, Max Gust SpeedMPH,PrecipitationIn, CloudCover, Events, WindDirDegrees
2012-9-1,80,65,49,42,28,12,63,36,8,30.04,29.89,29.78,10,8,5,25,8,32,0.00,0,,305
2012-9-2,79,58,37,29,23,13,55,32,9,30.16,30.07,29.98,10,9,6,23,5,29,0.00,0,,313
2012-9-3,81,60,39,29,25,18,55,33,10,30.18,30.07,29.96,10,9,5,16,3,20,0.00,0,,273
2012-9-4,79,60,41,34,30,26,53,35,17,30.14,30.09,30.02,10,9,6,20,5,25,0.00,0,,331
2012-9-5,81,62,42,36,34,30,76,46,16,30.13,30.02,29.90,10,9,5,18,4,24,0.00,0,,4
2012-9-6,68,59,50,47,44,36,71,55,39,30.19,30.05,29.91,10,10,10,25,12,33,T,2,Rain,353
2012-9-7,82,62,41,44,39,26,83,49,15,30.34,30.26,30.19,10,10,10,16,3,21,0.00,0,,356
2012-9-8,87,64,41,38,34,29,76,44,12,30.30,30.16,30.01,10,10,7,14,2,14,0.00,0,,156
2012-9-9,81,64,46,42,35,32,65,43,20,29.99,29.89,29.78,10,8,4,14,4,16,T,2,Rain,289
2012-9-10,73,58,43,35,32,27,65,45,24,29.99,29.90,29.82,10,10,10,29,8,38,0.00,1,,295
2012-9-11,66,54,41,32,23,14,53,33,13,30.25,30.15,30.01,10,10,10,18,8,23,0.00,1,,301
2012-9-12,70,51,32,27,24,21,61,39,16,30.46,30.38,30.27,10,10,9,14,3,28,0.00,0,,360
2012-9-13,79,57,35,32,28,25,70,43,15,30.52,30.39,30.26,10,6,1,16,2,32,0.00,0,,133
2012-9-14,75,57,38,38,31,27,65,42,18,30.32,30.19,30.06,5,3,2,9,2,12,0.00,6,,123
2012-9-15,79,61,42,36,32,30,65,42,18,30.18,30.12,30.04,10,3,1,12,3,14,0.00,5,,135
2012-9-16,79,61,43,38,33,28,70,44,17,30.19,30.12,30.06,10,8,5,20,4,26,0.00,1,,3
2012-9-17,81,60,38,36,32,27,76,45,14,30.23,30.15,30.07,10,9,5,13,2,20,0.00,0,,32
2012-9-18,83,62,41,35,32,29,70,43,15,30.19,30.11,29.99,10,6,2,8,1,24,0.00,0,,299
2012-9-19,84,63,41,37,32,28,62,39,15,30.22,30.13,30.05,9,5,2,15,2,18,0.00,1,,74
2012-9-20,85,63,41,35,32,27,62,39,16,30.25,30.16,30.06,10,4,2,13,3,16,0.00,3,,96
2012-9-21,85,64,43,36,34,33,65,41,17,30.21,30.10,29.98,9,6,3,13,2,18,0.00,0,,358
2012-9-22,75,60,44,41,37,34,70,48,25,30.12,30.05,29.98,8,6,4,7,1,8,0.00,0,,126
2012-9-23,79,62,44,40,37,35,66,46,26,30.11,30.05,29.97,9,5,2,16,4,21,0.00,0,,350
2012-9-24,77,62,46,45,41,37,76,55,33,30.11,30.02,29.94,8,4,2,9,2,10,0.00,0,,131
2012-9-25,77,62,47,45,42,39,80,54,27,30.05,29.99,29.93,10,4,2,9,3,,0.00,0,,106
2012-9-26,77,60,43,42,40,37,76,53,29,30.12,30.06,29.99,10,8,4,17,3,23,0.00,0,,342
2012-9-27,77,58,39,40,37,34,79,51,23,30.19,30.10,30.01,10,8,6,13,1,17,0.00,0,,332
2012-9-28,75,57,38,39,36,33,79,52,25,30.11,30.02,29.92,10,6,4,14,2,16,T,1,,324
2012-9-29,79,65,51,44,40,36,64,44,23,30.13,30.05,29.99,10,8,4,23,4,25,0.00,1,,232
2012-9-30,77,61,44,42,37,31,76,48,19,30.31,30.23,30.14,10,10,8,16,4,22,0.00,0,,311